createdAt,value
2022-11-17T00:01:10.165Z,99032.37
2022-11-17T00:03:39.899Z,99020.29
2022-11-17T00:06:11.173Z,99007.49
2022-11-17T00:08:40.900Z,99010.63
2022-11-17T00:11:10.639Z,99001.02
2022-11-17T00:13:58.497Z,99001.02
2022-11-17T00:16:27.976Z,98989.44
2022-11-17T00:19:15.019Z,98983.22
2022-11-17T00:21:44.754Z,98973.56
2022-11-17T00:24:18.590Z,98965.33
2022-11-17T00:27:03.527Z,98952.66
2022-11-17T00:29:37.371Z,98946.58
2022-11-17T00:32:24.598Z,98932.70
2022-11-17T00:34:54.625Z,98917.14
2022-11-17T00:37:25.403Z,98903.94
2022-11-17T00:40:00.313Z,98892.12
2022-11-17T00:42:26.365Z,98894.20
2022-11-17T00:44:56.180Z,98899.67
2022-11-17T00:47:25.953Z,98873.95
2022-11-17T00:49:55.703Z,98863.59
2022-11-17T00:52:25.410Z,98862.56
2022-11-17T00:54:55.429Z,98860.69
2022-11-17T00:57:25.481Z,98827.59
2022-11-17T00:59:55.520Z,98842.73
2022-11-17T01:02:25.228Z,98836.72
2022-11-17T01:04:54.951Z,98823.70
2022-11-17T01:07:24.839Z,98833.76
2022-11-17T01:09:54.693Z,98819.89
2022-11-17T01:12:24.456Z,98807.08
2022-11-17T01:14:54.479Z,98813.42
2022-11-17T01:17:24.223Z,98803.83
2022-11-17T01:19:53.969Z,98805.67
2022-11-17T01:22:24.005Z,98812.13
2022-11-17T01:24:53.762Z,98802.80
2022-11-17T01:27:23.815Z,98813.73
2022-11-17T01:29:53.516Z,98813.73
2022-11-17T01:32:23.257Z,98816.25
2022-11-17T01:34:52.982Z,98812.10
2022-11-17T01:37:22.807Z,98813.03
2022-11-17T01:39:52.536Z,98813.03
2022-11-17T01:42:25.886Z,98809.09
2022-11-17T01:45:01.062Z,98806.44
2022-11-17T01:47:45.462Z,98777.16
2022-11-17T01:50:18.084Z,98784.63
2022-11-17T01:52:50.032Z,98770.16
2022-11-17T01:55:22.069Z,98787.44
2022-11-17T01:57:57.684Z,98778.36
2022-11-17T02:00:27.987Z,98777.28
2022-11-17T02:02:57.938Z,98770.58
2022-11-17T02:05:36.243Z,98763.10
2022-11-17T02:08:09.453Z,98765.70
2022-11-17T02:10:39.706Z,98749.42
2022-11-17T02:13:10.059Z,98747.39
2022-11-17T02:15:39.898Z,98742.89
2022-11-17T02:18:11.223Z,98741.17
2022-11-17T02:20:44.385Z,98742.95
2022-11-17T02:23:23.130Z,98738.46
2022-11-17T02:26:13.607Z,98747.14
2022-11-17T02:29:04.145Z,98742.75
2022-11-17T02:31:53.254Z,98744.34
2022-11-17T02:34:28.237Z,98732.98
2022-11-17T02:37:12.524Z,98731.44
2022-11-17T02:39:45.606Z,98722.64
2022-11-17T02:42:25.636Z,98722.64
2022-11-17T02:45:01.727Z,98719.84
2022-11-17T02:47:33.759Z,98716.77
2022-11-17T02:50:06.542Z,98706.20
2022-11-17T02:52:36.555Z,98713.42
2022-11-17T02:55:10.674Z,98716.16
2022-11-17T02:57:42.251Z,98695.75
2022-11-17T03:00:17.234Z,98706.13
2022-11-17T03:02:58.855Z,98706.13
2022-11-17T03:05:42.681Z,98682.03
2022-11-17T03:08:32.918Z,98704.85
2022-11-17T03:11:07.052Z,98687.48
2022-11-17T03:13:51.272Z,98694.20
2022-11-17T03:16:38.709Z,98699.44
2022-11-17T03:19:17.273Z,98699.44
2022-11-17T03:21:52.777Z,98680.77
2022-11-17T03:24:34.253Z,98657.89
2022-11-17T03:27:15.836Z,98656.81
2022-11-17T03:29:48.610Z,98657.89
2022-11-17T03:32:19.992Z,98635.47
2022-11-17T03:35:01.697Z,98610.41
2022-11-17T03:37:34.570Z,98619.64
2022-11-17T03:40:12.349Z,98618.82
2022-11-17T03:42:49.815Z,98627.61
2022-11-17T03:45:22.583Z,98625.08
2022-11-17T03:48:11.932Z,98613.96
2022-11-17T03:50:45.005Z,98614.13
2022-11-17T03:53:15.251Z,98612.25
2022-11-17T03:55:56.893Z,98607.67
2022-11-17T03:58:29.369Z,98600.32
2022-11-17T04:01:02.735Z,98605.39
2022-11-17T04:03:34.874Z,98609.80
2022-11-17T04:06:05.140Z,98619.52
2022-11-17T04:08:34.880Z,98610.61
2022-11-17T04:11:22.539Z,98611.31
2022-11-17T04:14:09.573Z,98592.57
2022-11-17T04:16:38.999Z,98587.26
2022-11-17T04:19:08.739Z,98598.34
2022-11-17T04:21:38.813Z,98591.40
2022-11-17T04:24:10.969Z,98596.92
2022-11-17T04:26:58.419Z,98595.17
2022-11-17T04:29:28.514Z,98585.41
2022-11-17T04:31:58.232Z,98582.15
2022-11-17T04:34:27.755Z,98581.92
2022-11-17T04:36:57.552Z,98568.66
2022-11-17T04:39:27.567Z,98566.98
2022-11-17T04:41:58.933Z,98562.61
2022-11-17T04:44:31.224Z,98553.65
2022-11-17T04:47:02.679Z,98552.09
2022-11-17T04:49:33.625Z,98565.02
2022-11-17T04:52:03.527Z,98547.91
2022-11-17T04:54:33.013Z,98532.90
2022-11-17T04:57:03.512Z,98544.91
2022-11-17T04:59:33.232Z,98545.50
2022-11-17T05:02:06.073Z,98524.98
2022-11-17T05:04:51.513Z,98532.09
2022-11-17T05:07:21.352Z,98541.31
2022-11-17T05:09:51.128Z,98546.19
2022-11-17T05:12:38.376Z,98546.19
2022-11-17T05:15:08.457Z,98543.23
2022-11-17T05:17:38.467Z,98538.13
2022-11-17T05:20:10.235Z,98535.55
2022-11-17T05:23:00.235Z,98547.87
2022-11-17T05:25:28.916Z,98530.18
2022-11-17T05:27:59.508Z,98536.77
2022-11-17T05:30:29.237Z,98536.09
2022-11-17T05:32:58.966Z,98525.72
2022-11-17T05:35:28.439Z,98540.19
2022-11-17T05:37:58.184Z,98526.59
2022-11-17T05:40:27.915Z,98526.81
2022-11-17T05:42:57.640Z,98532.27
2022-11-17T05:45:27.128Z,98528.48
2022-11-17T05:47:56.847Z,98512.95
2022-11-17T05:50:26.572Z,98513.75
2022-11-17T05:52:57.663Z,98513.75
2022-11-17T05:55:27.561Z,98518.36
2022-11-17T05:58:00.824Z,98525.58
2022-11-17T06:00:31.631Z,98514.85
2022-11-17T06:03:04.388Z,98536.41
2022-11-17T06:05:34.476Z,98536.41
2022-11-17T06:08:07.085Z,98535.55
2022-11-17T06:10:36.826Z,98556.78
2022-11-17T06:13:06.627Z,98546.05
2022-11-17T06:15:36.499Z,98543.00
2022-11-17T06:18:19.005Z,98543.00
2022-11-17T06:20:53.403Z,98547.45
2022-11-17T06:23:25.817Z,98547.45
2022-11-17T06:25:56.385Z,98542.81
2022-11-17T06:28:28.113Z,98552.02
2022-11-17T06:30:58.481Z,98553.10
2022-11-17T06:33:31.454Z,98554.19
2022-11-17T06:36:03.620Z,98559.37
2022-11-17T06:38:35.114Z,98555.33
2022-11-17T06:41:11.508Z,98554.50
2022-11-17T06:43:37.468Z,98560.05
2022-11-17T06:46:09.630Z,98564.61
2022-11-17T06:48:39.413Z,98567.34
2022-11-17T06:51:09.168Z,98559.70
2022-11-17T06:53:38.997Z,98572.25
2022-11-17T06:56:11.579Z,98576.08
2022-11-17T06:58:41.946Z,98574.92
2022-11-17T07:01:14.505Z,98576.02
2022-11-17T07:03:44.598Z,98596.00
2022-11-17T07:06:16.054Z,98588.53
2022-11-17T07:08:46.197Z,98586.17
2022-11-17T07:11:19.719Z,98591.09
2022-11-17T07:13:49.282Z,98595.41
2022-11-17T07:16:23.437Z,98602.86
2022-11-17T07:18:53.477Z,98593.63
2022-11-17T07:21:23.238Z,98599.55
2022-11-17T07:23:52.772Z,98606.14
2022-11-17T07:26:22.560Z,98612.14
2022-11-17T07:28:52.345Z,98611.11
2022-11-17T07:31:22.583Z,98612.81
2022-11-17T07:33:54.606Z,98614.33
2022-11-17T07:36:24.359Z,98622.31
2022-11-17T07:38:54.193Z,98619.97
2022-11-17T07:41:24.262Z,98623.06
2022-11-17T07:43:54.077Z,98627.11
2022-11-17T07:46:24.093Z,98630.94
2022-11-17T07:48:57.028Z,98638.25
2022-11-17T07:51:26.921Z,98637.92
2022-11-17T07:53:56.958Z,98647.79
2022-11-17T07:56:26.511Z,98647.79
2022-11-17T07:58:56.236Z,98646.91
2022-11-17T08:01:27.763Z,98644.41
2022-11-17T08:03:58.448Z,98647.19
2022-11-17T08:06:28.066Z,98646.39
2022-11-17T08:08:57.890Z,98659.07
2022-11-17T08:11:27.879Z,98659.73
2022-11-17T08:13:57.468Z,98666.41
2022-11-17T08:16:28.599Z,98679.50
2022-11-17T08:18:58.700Z,98672.08
2022-11-17T08:21:28.681Z,98670.18
2022-11-17T08:24:00.138Z,98671.05
2022-11-17T08:26:29.920Z,98687.72
2022-11-17T08:29:01.084Z,98679.50
2022-11-17T08:31:30.960Z,98687.84
2022-11-17T08:34:00.729Z,98686.56
2022-11-17T08:36:30.624Z,98689.28
2022-11-17T08:39:00.377Z,98693.98
2022-11-17T08:41:30.183Z,98692.08
2022-11-17T08:44:00.377Z,98692.63
2022-11-17T08:46:29.929Z,98690.28
2022-11-17T08:49:01.093Z,98687.11
2022-11-17T08:51:30.968Z,98697.92
2022-11-17T08:54:00.724Z,98706.65
2022-11-17T08:56:30.514Z,98697.38
2022-11-17T08:59:00.350Z,98709.09
2022-11-17T09:01:30.178Z,98706.47
2022-11-17T09:03:59.925Z,98708.42
2022-11-17T09:06:29.699Z,98706.17
2022-11-17T09:08:59.767Z,98720.63
2022-11-17T09:11:29.824Z,98709.16
2022-11-17T09:13:59.614Z,98715.51
2022-11-17T09:16:29.685Z,98720.61
2022-11-17T09:18:59.738Z,98717.34
2022-11-17T09:21:31.316Z,98721.08
2022-11-17T09:24:01.270Z,98719.17
2022-11-17T09:26:31.087Z,98729.19
2022-11-17T09:29:04.665Z,98735.28
2022-11-17T09:31:34.715Z,98735.45
2022-11-17T09:34:06.634Z,98731.92
2022-11-17T09:36:37.123Z,98741.09
2022-11-17T09:39:06.932Z,98741.34
2022-11-17T09:41:44.960Z,98743.19
2022-11-17T09:44:41.956Z,98748.70
2022-11-17T09:47:26.713Z,98750.83
2022-11-17T09:50:16.097Z,98761.64
2022-11-17T09:53:03.819Z,98756.89
2022-11-17T09:55:39.066Z,98771.61
2022-11-17T09:58:29.623Z,98776.61
2022-11-17T10:00:59.803Z,98778.41
2022-11-17T10:03:37.519Z,98777.09
2022-11-17T10:06:06.589Z,98771.28
2022-11-17T10:08:45.106Z,98776.73
2022-11-17T10:11:32.638Z,98776.73
2022-11-17T10:14:11.891Z,98783.26
2022-11-17T10:16:57.161Z,98781.39
2022-11-17T10:19:29.621Z,98781.39
2022-11-17T10:22:02.732Z,98785.39
2022-11-17T10:24:53.905Z,98787.81
2022-11-17T10:27:32.310Z,98791.34
2022-11-17T10:30:05.189Z,98798.91
2022-11-17T10:32:38.162Z,98800.53
2022-11-17T10:35:25.950Z,98800.59
2022-11-17T10:38:01.663Z,98800.59
2022-11-17T10:40:33.555Z,98805.68
2022-11-17T10:43:06.688Z,98805.84
2022-11-17T10:45:36.660Z,98803.34
2022-11-17T10:48:13.051Z,98798.25
2022-11-17T10:50:54.303Z,98801.20
2022-11-17T10:53:42.986Z,98809.57
2022-11-17T10:56:18.905Z,98803.77
2022-11-17T10:58:57.438Z,98807.97
2022-11-17T11:01:39.053Z,98807.49
2022-11-17T11:04:29.947Z,98811.75
2022-11-17T11:07:17.299Z,98808.48
2022-11-17T11:09:58.832Z,98804.20
2022-11-17T11:12:31.637Z,98818.30
2022-11-17T11:15:03.237Z,98824.63
2022-11-17T11:17:33.055Z,98824.04
2022-11-17T11:20:02.843Z,98834.38
2022-11-17T11:22:44.104Z,98831.41
2022-11-17T11:25:16.886Z,98825.25
2022-11-17T11:28:04.547Z,98825.25
2022-11-17T11:30:37.322Z,98832.57
2022-11-17T11:33:28.196Z,98837.88
2022-11-17T11:36:11.424Z,98834.98
2022-11-17T11:38:49.741Z,98848.19
2022-11-17T11:41:28.269Z,98850.65
2022-11-17T11:44:06.835Z,98847.19
2022-11-17T11:46:51.518Z,98847.03
2022-11-17T11:49:40.338Z,98857.48
2022-11-17T11:52:14.127Z,98857.48
2022-11-17T11:54:50.852Z,98858.30
2022-11-17T11:57:22.009Z,98862.06
2022-11-17T12:00:09.427Z,98861.23
2022-11-17T12:03:05.750Z,98857.48
2022-11-17T12:05:44.486Z,98862.88
2022-11-17T12:08:37.997Z,98866.11
2022-11-17T12:11:28.230Z,98871.31
2022-11-17T12:14:00.029Z,98871.31
2022-11-17T12:16:32.790Z,98872.09
2022-11-17T12:19:03.053Z,98885.52
2022-11-17T12:21:32.962Z,98878.03
2022-11-17T12:24:11.858Z,98876.16
2022-11-17T12:26:41.819Z,98884.81
2022-11-17T12:29:26.427Z,98889.80
2022-11-17T12:32:01.198Z,98890.61
2022-11-17T12:34:36.983Z,98899.62
2022-11-17T12:37:22.423Z,98904.41
2022-11-17T12:40:12.011Z,98906.89
2022-11-17T12:42:44.791Z,98899.88
2022-11-17T12:45:14.589Z,98902.80
2022-11-17T12:48:04.791Z,98902.02
2022-11-17T12:50:20.800Z,98904.49
2022-11-17T12:53:14.438Z,98901.88
2022-11-17T12:55:49.624Z,98912.34
2022-11-17T12:58:47.663Z,98920.79
2022-11-17T13:01:36.614Z,98911.17
2022-11-17T13:04:24.642Z,98919.53
2022-11-17T13:07:02.875Z,98919.24
2022-11-17T13:09:36.925Z,98923.36
2022-11-17T13:12:10.674Z,98923.36
2022-11-17T13:14:57.978Z,98926.30
2022-11-17T13:17:30.456Z,98925.30
2022-11-17T13:20:28.288Z,98925.10
2022-11-17T13:23:08.078Z,98921.45
2022-11-17T13:25:37.862Z,98925.25
2022-11-17T13:28:27.028Z,98927.48
2022-11-17T13:30:56.690Z,98926.27
2022-11-17T13:33:27.568Z,98940.28
2022-11-17T13:36:19.580Z,98940.03
2022-11-17T13:38:52.069Z,98944.78
2022-11-17T13:41:24.616Z,98952.35
2022-11-17T13:43:55.994Z,98953.97
2022-11-17T13:46:25.602Z,98956.78
2022-11-17T13:48:55.202Z,98946.77
2022-11-17T13:51:32.449Z,98948.41
2022-11-17T13:54:07.891Z,98955.06
2022-11-17T13:56:42.824Z,98959.76
2022-11-17T13:59:24.715Z,98955.85
2022-11-17T14:02:19.755Z,98952.83
2022-11-17T14:05:15.003Z,98950.65
2022-11-17T14:07:45.847Z,98950.65
2022-11-17T14:10:24.323Z,98951.47
2022-11-17T14:13:05.201Z,98963.82
2022-11-17T14:15:47.903Z,98961.45
2022-11-17T14:18:30.574Z,98958.97
2022-11-17T14:21:18.779Z,98967.47
2022-11-17T14:23:48.515Z,98965.05
2022-11-17T14:26:21.191Z,98960.12
2022-11-17T14:28:52.276Z,98972.23
2022-11-17T14:31:22.307Z,98973.89
2022-11-17T14:33:52.747Z,98973.89
2022-11-17T14:36:22.411Z,98986.19
2022-11-17T14:38:52.479Z,98981.25
2022-11-17T14:41:22.222Z,98986.55
2022-11-17T14:43:51.960Z,98984.81
2022-11-17T14:46:27.534Z,98988.27
2022-11-17T14:48:57.366Z,98989.91
2022-11-17T14:51:27.114Z,98995.30
2022-11-17T14:53:56.948Z,98994.55
2022-11-17T14:56:26.796Z,99004.30
2022-11-17T14:58:59.383Z,98996.92
2022-11-17T15:01:31.954Z,98999.94
2022-11-17T15:04:27.212Z,98999.41
2022-11-17T15:06:35.667Z,99006.58
2022-11-17T15:09:06.164Z,99011.82
2022-11-17T15:11:40.486Z,99018.91
2022-11-17T15:14:11.428Z,99015.03
2022-11-17T15:16:41.377Z,99016.34
2022-11-17T15:19:12.111Z,99023.71
2022-11-17T15:21:41.611Z,99019.31
2022-11-17T15:24:11.218Z,99025.09
2022-11-17T15:26:40.993Z,99030.99
2022-11-17T15:29:15.267Z,99026.14
2022-11-17T15:31:45.418Z,99030.71
2022-11-17T15:34:19.905Z,99029.64
2022-11-17T15:36:46.841Z,99033.21
2022-11-17T15:39:17.007Z,99036.64
2022-11-17T15:41:47.320Z,99039.93
2022-11-17T15:44:18.962Z,99050.25
2022-11-17T15:46:48.818Z,99050.25
2022-11-17T15:49:18.973Z,99053.66
2022-11-17T15:51:48.886Z,99050.48
2022-11-17T15:54:20.965Z,99052.50
2022-11-17T15:56:51.689Z,99057.95
2022-11-17T15:59:21.162Z,99058.98
2022-11-17T16:01:51.397Z,99067.16
2022-11-17T16:04:21.514Z,99063.63
2022-11-17T16:06:51.929Z,99065.25
2022-11-17T16:09:22.403Z,99068.91
2022-11-17T16:11:52.291Z,99076.83
2022-11-17T16:14:22.007Z,99079.24
2022-11-17T16:16:51.768Z,99076.45
2022-11-17T16:19:21.499Z,99082.64
2022-11-17T16:21:51.304Z,99089.11
2022-11-17T16:24:20.769Z,99080.30
2022-11-17T16:26:51.181Z,99087.98
2022-11-17T16:29:20.900Z,99086.24
2022-11-17T16:31:51.107Z,99092.76
2022-11-17T16:34:21.810Z,99097.73
2022-11-17T16:36:51.673Z,99091.73
2022-11-17T16:39:21.842Z,99095.48
2022-11-17T16:41:52.526Z,99100.80
2022-11-17T16:44:22.212Z,99099.72
2022-11-17T16:46:52.106Z,99097.19
2022-11-17T16:49:22.140Z,99105.58
2022-11-17T16:51:54.101Z,99104.50
2022-11-17T16:54:24.227Z,99110.95
2022-11-17T16:56:53.969Z,99106.31
2022-11-17T16:59:23.776Z,99118.69
2022-11-17T17:01:53.627Z,99113.61
2022-11-17T17:04:23.076Z,99118.53
2022-11-17T17:06:52.894Z,99120.99
2022-11-17T17:09:27.902Z,99123.84
2022-11-17T17:11:55.226Z,99120.93
2022-11-17T17:14:25.291Z,99123.20
2022-11-17T17:16:55.022Z,99133.14
2022-11-17T17:19:24.766Z,99133.14
2022-11-17T17:21:54.496Z,99135.30
2022-11-17T17:24:24.433Z,99136.70
2022-11-17T17:26:54.175Z,99143.64
2022-11-17T17:29:23.920Z,99149.83
2022-11-17T17:31:53.949Z,99149.95
2022-11-17T17:34:24.015Z,99155.27
2022-11-17T17:36:53.784Z,99153.51
2022-11-17T17:39:23.271Z,99160.51
2022-11-17T17:41:53.381Z,99160.17
2022-11-17T17:44:22.896Z,99158.69
2022-11-17T17:46:52.621Z,99164.73
2022-11-17T17:49:22.102Z,99169.64
2022-11-17T17:51:52.131Z,99167.00
2022-11-17T17:54:24.087Z,99176.27
2022-11-17T17:56:53.915Z,99173.73
2022-11-17T17:59:23.732Z,99178.17
2022-11-17T18:01:53.471Z,99180.63
2022-11-17T18:04:23.362Z,99187.06
2022-11-17T18:06:54.800Z,99192.87
2022-11-17T18:09:24.566Z,99198.88
2022-11-17T18:11:54.298Z,99201.89
2022-11-17T18:14:26.999Z,99202.17
2022-11-17T18:16:56.746Z,99203.39
2022-11-17T18:19:32.609Z,99209.47
2022-11-17T18:21:58.767Z,99209.47
2022-11-17T18:24:28.589Z,99206.34
2022-11-17T18:26:58.308Z,99215.27
2022-11-17T18:29:28.024Z,99221.45
2022-11-17T18:31:57.887Z,99213.05
2022-11-17T18:34:27.694Z,99218.01
2022-11-17T18:36:57.501Z,99221.13
2022-11-17T18:39:28.311Z,99229.13
2022-11-17T18:41:58.120Z,99227.48
2022-11-17T18:44:27.907Z,99231.61
2022-11-17T18:47:02.567Z,99229.70
2022-11-17T18:49:29.437Z,99232.92
2022-11-17T18:51:59.202Z,99243.65
2022-11-17T18:54:29.017Z,99239.83
2022-11-17T18:57:00.037Z,99242.36
2022-11-17T18:59:29.654Z,99242.08
2022-11-17T19:01:59.978Z,99245.38
2022-11-17T19:04:29.676Z,99249.62
2022-11-17T19:07:00.826Z,99260.68
2022-11-17T19:09:30.459Z,99253.02
2022-11-17T19:12:00.416Z,99264.20
2022-11-17T19:14:30.141Z,99264.13
2022-11-17T19:17:00.174Z,99256.14
2022-11-17T19:19:29.904Z,99269.13
2022-11-17T19:21:59.620Z,99266.77
2022-11-17T19:24:29.754Z,99269.66
2022-11-17T19:26:59.595Z,99274.81
2022-11-17T19:29:29.765Z,99273.98
2022-11-17T19:32:00.103Z,99285.59
2022-11-17T19:34:29.825Z,99288.69
2022-11-17T19:36:59.570Z,99285.55
2022-11-17T19:39:29.403Z,99292.65
2022-11-17T19:41:59.163Z,99297.94
2022-11-17T19:44:29.865Z,99305.61
2022-11-17T19:46:59.599Z,99309.13
2022-11-17T19:49:29.335Z,99308.55
2022-11-17T19:51:59.174Z,99315.53
2022-11-17T19:54:29.380Z,99317.09
2022-11-17T19:56:59.126Z,99324.24
2022-11-17T19:59:28.949Z,99317.50
2022-11-17T20:01:58.744Z,99326.14
2022-11-17T20:04:28.259Z,99333.31
2022-11-17T20:06:58.229Z,99334.52
2022-11-17T20:09:27.959Z,99341.08
2022-11-17T20:11:58.044Z,99343.80
2022-11-17T20:14:27.495Z,99348.35
2022-11-17T20:16:57.594Z,99351.97
2022-11-17T20:19:27.332Z,99352.44
2022-11-17T20:21:56.924Z,99355.64
2022-11-17T20:24:26.460Z,99355.44
2022-11-17T20:26:56.278Z,99362.98
2022-11-17T20:29:26.026Z,99369.50
2022-11-17T20:31:55.859Z,99363.16
2022-11-17T20:34:25.737Z,99367.89
2022-11-17T20:36:55.536Z,99362.50
2022-11-17T20:39:24.967Z,99374.52
2022-11-17T20:41:54.745Z,99378.23
2022-11-17T20:44:24.730Z,99370.38
2022-11-17T20:46:55.890Z,99383.97
2022-11-17T20:49:27.761Z,99386.34
2022-11-17T20:51:57.536Z,99385.64
2022-11-17T20:54:27.457Z,99392.22
2022-11-17T20:56:57.290Z,99401.52
2022-11-17T20:59:27.206Z,99396.67
2022-11-17T21:01:56.972Z,99409.25
2022-11-17T21:04:27.068Z,99407.39
2022-11-17T21:06:56.846Z,99416.25
2022-11-17T21:09:26.626Z,99410.94
2022-11-17T21:11:59.046Z,99410.94
2022-11-17T21:14:30.666Z,99419.11
2022-11-17T21:17:00.819Z,99418.53
2022-11-17T21:19:32.398Z,99421.45
2022-11-17T21:22:02.212Z,99413.28
2022-11-17T21:24:31.980Z,99423.25
2022-11-17T21:27:01.914Z,99419.27
2022-11-17T21:29:32.945Z,99425.01
2022-11-17T21:32:02.696Z,99423.78
2022-11-17T21:34:32.470Z,99421.88
2022-11-17T21:37:03.735Z,99427.63
2022-11-17T21:39:33.473Z,99432.59
2022-11-17T21:42:03.231Z,99439.29
2022-11-17T21:44:33.281Z,99427.91
2022-11-17T21:47:03.314Z,99427.91
2022-11-17T21:49:33.065Z,99445.03
2022-11-17T21:52:03.101Z,99445.03
2022-11-17T21:54:32.843Z,99442.48
2022-11-17T21:57:02.593Z,99441.52
2022-11-17T21:59:32.330Z,99445.90
2022-11-17T22:02:02.362Z,99449.60
2022-11-17T22:04:32.104Z,99453.30
2022-11-17T22:07:01.893Z,99448.68
2022-11-17T22:09:31.881Z,99448.68
2022-11-17T22:12:01.687Z,99457.49
2022-11-17T22:14:32.033Z,99469.48
2022-11-17T22:17:01.755Z,99472.02
2022-11-17T22:19:33.568Z,99479.22
2022-11-17T22:22:03.287Z,99478.77
2022-11-17T22:24:33.033Z,99472.47
2022-11-17T22:27:02.485Z,99486.03
2022-11-17T22:29:32.214Z,99485.79
2022-11-17T22:32:01.946Z,99484.84
2022-11-17T22:34:31.681Z,99485.86
2022-11-17T22:37:01.427Z,99487.16
2022-11-17T22:39:30.870Z,99487.57
2022-11-17T22:42:00.907Z,99492.45
2022-11-17T22:44:30.726Z,99494.50
2022-11-17T22:47:00.447Z,99507.48
2022-11-17T22:49:30.200Z,99504.00
2022-11-17T22:52:07.480Z,99507.31
2022-11-17T22:54:37.865Z,99507.91
2022-11-17T22:57:07.583Z,99515.27
2022-11-17T22:59:37.339Z,99521.45
2022-11-17T23:02:08.366Z,99521.45
2022-11-17T23:04:38.117Z,99527.29
2022-11-17T23:07:07.945Z,99529.61
2022-11-17T23:09:37.777Z,99533.38
2022-11-17T23:12:09.118Z,99532.23
2022-11-17T23:14:38.849Z,99533.53
2022-11-17T23:17:08.598Z,99535.41
2022-11-17T23:19:38.332Z,99540.87
2022-11-17T23:22:11.682Z,99546.47
2022-11-17T23:24:41.488Z,99547.62
2022-11-17T23:27:11.318Z,99549.50
2022-11-17T23:29:41.046Z,99558.87
2022-11-17T23:32:12.148Z,99566.82
2022-11-17T23:34:41.906Z,99562.22
2022-11-17T23:37:11.908Z,99556.63
2022-11-17T23:39:41.940Z,99564.02
2022-11-17T23:42:13.814Z,99560.64
2022-11-17T23:44:43.608Z,99563.48
2022-11-17T23:47:13.348Z,99562.30
2022-11-17T23:49:43.110Z,99565.91
2022-11-17T23:52:14.143Z,99568.10
2022-11-17T23:54:43.882Z,99563.35
2022-11-17T23:57:13.627Z,99563.72
2022-11-17T23:59:43.672Z,99577.86
